Time,TemperatureF,DewpointF,PressureIn,WindDirection,WindDirectionDegrees,WindSpeedMPH,WindSpeedGustMPH,Humidity,HourlyPrecipIn,Conditions,Clouds,dailyrainin,SolarRadiationWatts/m^2,SoftwareType,DateUTC
2013-01-16 00:09:00,73.0,66.0,30.05,ESE,107,8.0,-999.0,79,-99.99,,,0.00,0,weatherlink.com 1.10,2013-01-16 05:09:00,
2013-01-16 00:24:00,73.2,67.0,30.05,ESE,108,7.0,-999.0,80,-99.99,,,0.00,0,weatherlink.com 1.10,2013-01-16 05:24:00,
2013-01-16 00:39:00,73.1,67.0,30.05,East,101,6.0,-999.0,80,-99.99,,,0.00,0,weatherlink.com 1.10,2013-01-16 05:39:00,
2013-01-16 00:54:00,73.0,66.0,30.05,ESE,117,7.0,-999.0,79,-99.99,,,0.00,0,weatherlink.com 1.10,2013-01-16 05:54:00,
2013-01-16 01:09:00,73.0,66.0,30.05,SE,127,6.0,-999.0,79,-99.99,,,0.00,0,weatherlink.com 1.10,2013-01-16 06:09:00,
2013-01-16 01:24:00,73.2,66.0,30.05,SE,145,9.0,-999.0,79,-99.99,,,0.00,0,weatherlink.com 1.10,2013-01-16 06:24:00,
2013-01-16 01:39:00,73.1,66.0,30.05,ESE,119,7.0,-999.0,79,-99.99,,,0.00,0,weatherlink.com 1.10,2013-01-16 06:39:00,
2013-01-16 01:54:00,73.0,66.0,30.05,SE,134,5.0,-999.0,79,-99.99,,,0.00,0,weatherlink.com 1.10,2013-01-16 06:54:00,
2013-01-16 02:09:00,72.7,66.0,30.05,SE,142,6.0,-999.0,79,-99.99,,,0.00,0,weatherlink.com 1.10,2013-01-16 07:09:00,
2013-01-16 02:24:00,72.4,65.0,30.05,SE,145,9.0,-999.0,78,-99.99,,,0.00,0,weatherlink.com 1.10,2013-01-16 07:24:00,
2013-01-16 02:39:00,72.3,65.0,30.05,SSE,154,0.0,-999.0,77,-99.99,,,0.00,0,weatherlink.com 1.10,2013-01-16 07:39:00,
2013-01-16 02:54:00,72.2,64.0,30.05,SSE,152,9.0,-999.0,75,-99.99,,,0.00,0,weatherlink.com 1.10,2013-01-16 07:54:00,
2013-01-16 03:09:00,72.6,65.0,30.05,SSE,153,7.0,-999.0,76,-99.99,,,0.00,0,weatherlink.com 1.10,2013-01-16 08:09:00,
2013-01-16 03:24:00,73.3,66.0,30.05,SSW,200,6.0,-999.0,78,-99.99,,,0.00,0,weatherlink.com 1.10,2013-01-16 08:24:00,
2013-01-16 03:39:00,73.0,66.0,30.05,SW,215,0.0,-999.0,78,-99.99,,,0.00,0,weatherlink.com 1.10,2013-01-16 08:39:00,
2013-01-16 03:54:00,72.6,66.0,30.05,West,278,0.0,-999.0,79,-99.99,,,0.00,0,weatherlink.com 1.10,2013-01-16 08:54:00,
2013-01-16 04:09:00,71.9,65.0,30.05,WNW,302,0.0,-999.0,80,-99.99,,,0.00,0,weatherlink.com 1.10,2013-01-16 09:09:00,
2013-01-16 04:24:00,71.2,65.0,30.05,WNW,302,0.0,-999.0,81,-99.99,,,0.00,0,weatherlink.com 1.10,2013-01-16 09:24:00,
2013-01-16 04:39:00,70.8,65.0,30.05,WNW,302,0.0,-999.0,82,-99.99,,,0.00,0,weatherlink.com 1.10,2013-01-16 09:39:00,
2013-01-16 04:54:00,70.4,65.0,30.05,WNW,303,0.0,-999.0,83,-99.99,,,0.00,0,weatherlink.com 1.10,2013-01-16 09:54:00,
2013-01-16 05:09:00,70.3,65.0,30.05,WNW,303,0.0,-999.0,83,-99.99,,,0.00,0,weatherlink.com 1.10,2013-01-16 10:09:00,
2013-01-16 05:24:00,70.6,66.0,30.05,SE,128,5.0,-999.0,84,-99.99,,,0.00,0,weatherlink.com 1.10,2013-01-16 10:24:00,
2013-01-16 05:39:00,71.0,66.0,30.06,SE,142,6.0,-999.0,85,-99.99,,,0.00,0,weatherlink.com 1.10,2013-01-16 10:39:00,
2013-01-16 05:54:00,71.9,67.0,30.06,ESE,121,7.0,-999.0,84,-99.99,,,0.00,0,weatherlink.com 1.10,2013-01-16 10:54:00,
2013-01-16 06:09:00,72.7,67.0,30.06,SSW,199,0.0,-999.0,83,-99.99,,,0.00,0,weatherlink.com 1.10,2013-01-16 11:09:00,
2013-01-16 06:24:00,72.6,67.0,30.06,SE,126,6.0,-999.0,82,-99.99,,,0.00,0,weatherlink.com 1.10,2013-01-16 11:24:00,
2013-01-16 06:39:00,73.1,67.0,30.07,SE,141,12.0,-999.0,82,-99.99,,,0.00,0,weatherlink.com 1.10,2013-01-16 11:39:00,
2013-01-16 06:55:00,73.3,67.0,30.07,SE,136,9.0,-999.0,81,-99.99,,,0.00,0,weatherlink.com 1.10,2013-01-16 11:55:00,
2013-01-16 07:09:00,73.4,67.0,30.07,SE,125,12.0,-999.0,81,-99.99,,,0.00,0,weatherlink.com 1.10,2013-01-16 12:09:00,
2013-01-16 07:24:00,73.5,67.0,30.07,SE,136,10.0,-999.0,81,-99.99,,,0.00,16,weatherlink.com 1.10,2013-01-16 12:24:00,
2013-01-16 07:39:00,73.5,67.0,30.08,SE,124,9.0,-999.0,81,-99.99,,,0.00,30,weatherlink.com 1.10,2013-01-16 12:39:00,
2013-01-16 07:54:00,73.8,68.0,30.08,SE,140,6.0,-999.0,81,-99.99,,,0.00,40,weatherlink.com 1.10,2013-01-16 12:54:00,
2013-01-16 08:09:00,74.2,68.0,30.08,SE,138,12.0,-999.0,81,-99.99,,,0.00,47,weatherlink.com 1.10,2013-01-16 13:09:00,
2013-01-16 08:24:00,74.9,69.0,30.09,SE,144,15.0,-999.0,81,-99.99,,,0.00,267,weatherlink.com 1.10,2013-01-16 13:24:00,
2013-01-16 08:39:00,76.0,69.0,30.09,SE,134,12.0,-999.0,80,-99.99,,,0.00,315,weatherlink.com 1.10,2013-01-16 13:39:00,
2013-01-16 08:54:00,76.6,69.0,30.10,SE,146,9.0,-999.0,78,-99.99,,,0.00,93,weatherlink.com 1.10,2013-01-16 13:54:00,
2013-01-16 09:09:00,77.7,70.0,30.10,SSE,148,9.0,-999.0,78,-99.99,,,0.00,408,weatherlink.com 1.10,2013-01-16 14:09:00,
2013-01-16 09:24:00,78.6,71.0,30.11,SE,140,9.0,-999.0,77,-99.99,,,0.00,446,weatherlink.com 1.10,2013-01-16 14:24:00,
2013-01-16 09:39:00,79.8,71.0,30.11,ESE,123,7.0,-999.0,75,-99.99,,,0.00,494,weatherlink.com 1.10,2013-01-16 14:39:00,
2013-01-16 09:54:00,80.4,71.0,30.11,SSE,151,9.0,-999.0,74,-99.99,,,0.00,573,weatherlink.com 1.10,2013-01-16 14:54:00,
2013-01-16 10:09:00,80.7,72.0,30.11,SE,145,9.0,-999.0,74,-99.99,,,0.00,178,weatherlink.com 1.10,2013-01-16 15:09:00,
2013-01-16 10:24:00,81.6,72.0,30.11,SE,132,9.0,-999.0,73,-99.99,,,0.00,621,weatherlink.com 1.10,2013-01-16 15:24:00,
2013-01-16 10:39:00,82.5,73.0,30.10,SE,144,13.0,-999.0,72,-99.99,,,0.00,650,weatherlink.com 1.10,2013-01-16 15:39:00,
2013-01-16 10:54:00,83.0,73.0,30.10,SSE,155,7.0,-999.0,71,-99.99,,,0.00,696,weatherlink.com 1.10,2013-01-16 15:54:00,
2013-01-16 11:09:00,83.3,73.0,30.09,SE,146,11.0,-999.0,70,-99.99,,,0.00,740,weatherlink.com 1.10,2013-01-16 16:09:00,
2013-01-16 11:24:00,83.6,73.0,30.09,ESE,111,9.0,-999.0,70,-99.99,,,0.00,847,weatherlink.com 1.10,2013-01-16 16:24:00,
2013-01-16 11:39:00,83.5,73.0,30.08,ESE,119,7.0,-999.0,70,-99.99,,,0.00,877,weatherlink.com 1.10,2013-01-16 16:39:00,
2013-01-16 11:54:00,84.6,73.0,30.07,ESE,104,12.0,-999.0,69,-99.99,,,0.00,777,weatherlink.com 1.10,2013-01-16 16:54:00,
2013-01-16 12:09:00,84.0,72.0,30.07,SE,134,4.0,-999.0,67,-99.99,,,0.00,169,weatherlink.com 1.10,2013-01-16 17:09:00,
2013-01-16 12:24:00,83.5,73.0,30.06,SE,132,10.0,-999.0,71,-99.99,,,0.00,788,weatherlink.com 1.10,2013-01-16 17:24:00,
2013-01-16 12:39:00,84.0,73.0,30.06,SSE,147,7.0,-999.0,70,-99.99,,,0.00,777,weatherlink.com 1.10,2013-01-16 17:39:00,
2013-01-16 12:54:00,84.6,73.0,30.05,SSE,165,7.0,-999.0,69,-99.99,,,0.00,846,weatherlink.com 1.10,2013-01-16 17:54:00,
2013-01-16 13:09:00,84.5,73.0,30.04,SE,126,6.0,-999.0,69,-99.99,,,0.00,599,weatherlink.com 1.10,2013-01-16 18:09:00,
2013-01-16 13:24:00,83.3,73.0,30.04,SSE,148,11.0,-999.0,70,-99.99,,,0.00,388,weatherlink.com 1.10,2013-01-16 18:24:00,
2013-01-16 13:39:00,82.3,72.0,30.03,SSE,150,11.0,-999.0,72,-99.99,,,0.00,343,weatherlink.com 1.10,2013-01-16 18:39:00,
2013-01-16 13:54:00,82.4,73.0,30.03,East,93,4.0,-999.0,74,-99.99,,,0.00,552,weatherlink.com 1.10,2013-01-16 18:54:00,
2013-01-16 14:09:00,82.5,73.0,30.03,SSE,153,4.0,-999.0,74,-99.99,,,0.00,786,weatherlink.com 1.10,2013-01-16 19:09:00,
2013-01-16 14:24:00,83.1,74.0,30.02,ESE,121,9.0,-999.0,73,-99.99,,,0.00,613,weatherlink.com 1.10,2013-01-16 19:24:00,
2013-01-16 14:39:00,83.1,73.0,30.02,SE,135,12.0,-999.0,72,-99.99,,,0.00,573,weatherlink.com 1.10,2013-01-16 19:39:00,
2013-01-16 14:54:00,83.0,74.0,30.02,ESE,109,10.0,-999.0,73,-99.99,,,0.00,564,weatherlink.com 1.10,2013-01-16 19:54:00,
2013-01-16 15:09:00,82.0,73.0,30.03,SE,137,8.0,-999.0,74,-99.99,,,0.00,387,weatherlink.com 1.10,2013-01-16 20:09:00,
2013-01-16 15:24:00,81.4,72.0,30.03,SE,136,9.0,-999.0,73,-99.99,,,0.00,209,weatherlink.com 1.10,2013-01-16 20:24:00,
2013-01-16 15:39:00,80.4,71.0,30.04,SSE,150,0.0,-999.0,74,-99.99,,,0.00,169,weatherlink.com 1.10,2013-01-16 20:39:00,
2013-01-16 15:54:00,80.0,71.0,30.04,SSW,194,5.0,-999.0,75,-99.99,,,0.00,185,weatherlink.com 1.10,2013-01-16 20:54:00,
2013-01-16 16:09:00,79.5,71.0,30.04,SSE,155,12.0,-999.0,76,-99.99,,,0.00,142,weatherlink.com 1.10,2013-01-16 21:09:00,
2013-01-16 16:24:00,79.1,71.0,30.04,South,171,7.0,-999.0,76,-99.99,,,0.00,123,weatherlink.com 1.10,2013-01-16 21:24:00,
2013-01-16 16:39:00,78.5,71.0,30.04,SE,138,6.0,-999.0,77,-99.99,,,0.00,102,weatherlink.com 1.10,2013-01-16 21:39:00,
2013-01-16 16:54:00,78.3,71.0,30.04,SSE,161,4.0,-999.0,77,-99.99,,,0.00,77,weatherlink.com 1.10,2013-01-16 21:54:00,
2013-01-16 17:10:00,77.9,71.0,30.04,SSE,159,7.0,-999.0,78,-99.99,,,0.00,58,weatherlink.com 1.10,2013-01-16 22:10:00,
2013-01-16 17:25:00,77.4,70.0,30.05,ESE,123,4.0,-999.0,78,-99.99,,,0.00,37,weatherlink.com 1.10,2013-01-16 22:25:00,
2013-01-16 17:40:00,77.0,70.0,30.05,ESE,113,4.0,-999.0,78,-99.99,,,0.00,14,weatherlink.com 1.10,2013-01-16 22:40:00,
2013-01-16 17:55:00,76.9,70.0,30.05,SSE,147,9.0,-999.0,79,-99.99,,,0.00,0,weatherlink.com 1.10,2013-01-16 22:55:00,
2013-01-16 18:10:00,76.4,70.0,30.05,SE,137,10.0,-999.0,80,-99.99,,,0.00,0,weatherlink.com 1.10,2013-01-16 23:10:00,
2013-01-16 18:25:00,76.0,69.0,30.05,SE,133,10.0,-999.0,80,-99.99,,,0.00,0,weatherlink.com 1.10,2013-01-16 23:25:00,
2013-01-16 18:40:00,75.8,70.0,30.05,SE,135,13.0,-999.0,81,-99.99,,,0.00,0,weatherlink.com 1.10,2013-01-16 23:40:00,
2013-01-16 18:55:00,75.6,70.0,30.06,SE,142,10.0,-999.0,82,-99.99,,,0.00,0,weatherlink.com 1.10,2013-01-16 23:55:00,
2013-01-16 19:10:00,75.4,70.0,30.06,SSE,166,8.0,-999.0,83,-99.99,,,0.00,0,weatherlink.com 1.10,2013-01-17 00:10:00,
2013-01-16 19:25:00,75.3,70.0,30.07,SSE,156,9.0,-999.0,83,-99.99,,,0.00,0,weatherlink.com 1.10,2013-01-17 00:25:00,
2013-01-16 19:40:00,75.2,70.0,30.07,SE,138,8.0,-999.0,83,-99.99,,,0.00,0,weatherlink.com 1.10,2013-01-17 00:40:00,
2013-01-16 19:55:00,75.1,70.0,30.07,SSE,150,13.0,-999.0,84,-99.99,,,0.00,0,weatherlink.com 1.10,2013-01-17 00:55:00,
2013-01-16 20:10:00,75.0,70.0,30.07,SSE,162,5.0,-999.0,85,-99.99,,,0.03,0,weatherlink.com 1.10,2013-01-17 01:10:00,
2013-01-16 20:25:00,74.6,70.0,30.07,SSE,153,9.0,-999.0,85,-99.99,,,0.16,0,weatherlink.com 1.10,2013-01-17 01:25:00,
2013-01-16 20:40:00,74.0,70.0,30.07,SE,136,11.0,-999.0,86,-99.99,,,0.28,0,weatherlink.com 1.10,2013-01-17 01:40:00,
2013-01-16 20:55:00,73.8,70.0,30.07,SSE,159,11.0,-999.0,87,-99.99,,,0.28,0,weatherlink.com 1.10,2013-01-17 01:55:00,
2013-01-16 21:10:00,73.8,70.0,30.07,ESE,122,10.0,-999.0,88,-99.99,,,0.28,0,weatherlink.com 1.10,2013-01-17 02:10:00,
2013-01-16 21:25:00,73.8,70.0,30.07,ESE,118,14.0,-999.0,88,-99.99,,,0.28,0,weatherlink.com 1.10,2013-01-17 02:25:00,
2013-01-16 21:40:00,73.6,70.0,30.07,SSE,150,8.0,-999.0,88,-99.99,,,0.28,0,weatherlink.com 1.10,2013-01-17 02:40:00,
2013-01-16 21:55:00,73.5,70.0,30.07,SE,124,6.0,-999.0,88,-99.99,,,0.28,0,weatherlink.com 1.10,2013-01-17 02:55:00,
2013-01-16 22:10:00,73.7,70.0,30.07,ESE,117,7.0,-999.0,88,-99.99,,,0.28,0,weatherlink.com 1.10,2013-01-17 03:10:00,
2013-01-16 22:25:00,73.7,70.0,30.06,SSE,150,11.0,-999.0,88,-99.99,,,0.28,0,weatherlink.com 1.10,2013-01-17 03:25:00,
2013-01-16 22:40:00,73.6,70.0,30.05,SE,137,11.0,-999.0,88,-99.99,,,0.28,0,weatherlink.com 1.10,2013-01-17 03:40:00,
2013-01-16 22:55:00,73.9,70.0,30.05,SSE,159,14.0,-999.0,88,-99.99,,,0.28,0,weatherlink.com 1.10,2013-01-17 03:55:00,
2013-01-16 23:10:00,73.8,70.0,30.05,SE,144,11.0,-999.0,88,-99.99,,,0.28,0,weatherlink.com 1.10,2013-01-17 04:10:00,
2013-01-16 23:25:00,74.1,70.0,30.05,SE,126,19.0,-999.0,88,-99.99,,,0.28,0,weatherlink.com 1.10,2013-01-17 04:25:00,
2013-01-16 23:40:00,74.4,71.0,30.04,SE,140,12.0,-999.0,88,-99.99,,,0.28,0,weatherlink.com 1.10,2013-01-17 04:40:00,
2013-01-16 23:55:00,74.3,71.0,30.04,SSE,147,15.0,-999.0,88,-99.99,,,0.28,0,weatherlink.com 1.10,2013-01-17 04:55:00,